Time;durP1;ratioP1;P1;durP2;ratioP2;P2;SDS_P1;SDS_P2;PMS_P1;PMS_P2;Temp;Humidity;BMP_temperature;BMP_pressure;BME280_temperature;BME280_humidity;BME280_pressure;Samples;Min_cycle;Max_cycle;Signal;HPM_P1;HPM_P2
2022/09/21 00:01:29;;;;;;;1.12;1.10;;;;;;;10.18;82.02;99568.06;4247000;33;34953;-74
2022/09/21 00:04:00;;;;;;;2.33;1.50;;;;;;;10.36;81.35;99562.81;4247968;33;35184;-74
2022/09/21 00:06:31;;;;;;;0.60;0.60;;;;;;;10.28;81.84;99579.31;4247067;33;32837;-74
2022/09/21 00:08:59;;;;;;;1.55;1.45;;;;;;;9.98;82.88;99574.25;4235543;33;34797;-74
2022/09/21 00:11:29;;;;;;;0.68;0.68;;;;;;;10.09;82.33;99571.59;4248032;33;35116;-74
2022/09/21 00:14:00;;;;;;;0.60;0.60;;;;;;;10.34;81.50;99574.97;4235211;33;35273;-74
2022/09/21 00:16:28;;;;;;;1.08;1.05;;;;;;;9.90;84.23;99569.94;4247035;33;34459;-74
2022/09/21 00:18:56;;;;;;;0.37;0.37;;;;;;;9.74;85.17;99579.53;4248070;33;33672;-74
2022/09/21 00:21:24;;;;;;;0.73;0.73;;;;;;;9.95;84.11;99581.19;4248276;33;35772;-74
2022/09/21 00:23:53;;;;;;;0.50;0.50;;;;;;;9.54;85.59;99575.28;4248010;33;35161;-74
2022/09/21 00:26:23;;;;;;;0.50;0.50;;;;;;;10.09;83.71;99578.53;4248222;33;34218;-74
2022/09/21 00:28:53;;;;;;;1.45;1.35;;;;;;;10.29;81.91;99576.69;4235436;33;34026;-74
2022/09/21 00:31:21;;;;;;;0.65;0.65;;;;;;;10.03;81.90;99574.22;4247894;33;35036;-74
2022/09/21 00:33:50;;;;;;;0.80;0.80;;;;;;;10.12;81.95;99575.91;4247796;33;34541;-74
2022/09/21 00:36:21;;;;;;;0.57;0.57;;;;;;;10.50;80.76;99569.63;4247932;33;33434;-74
2022/09/21 00:38:55;;;;;;;0.40;0.40;;;;;;;9.88;82.80;99580.34;4247881;33;33975;-74
2022/09/21 00:41:24;;;;;;;0.88;0.82;;;;;;;9.79;84.26;99583.00;4247878;33;35190;-74
2022/09/21 00:44:17;;;;;;;0.60;0.60;;;;;;;10.23;81.32;99574.13;4235128;33;34367;-74
2022/09/21 00:46:47;;;;;;;0.68;0.68;;;;;;;9.83;83.57;99576.94;4247922;33;33468;-74
2022/09/21 00:49:15;;;;;;;0.95;0.95;;;;;;;10.18;81.28;99581.97;4235166;33;33907;-73
2022/09/21 00:51:44;;;;;;;0.50;0.50;;;;;;;9.76;82.52;99581.28;4246738;33;35883;-74
2022/09/21 00:54:16;;;;;;;0.50;0.50;;;;;;;10.07;82.10;99587.19;4246488;33;34486;-74
2022/09/21 00:56:44;;;;;;;0.40;0.40;;;;;;;10.48;79.79;99582.66;4246909;33;33405;-74
2022/09/21 00:59:13;;;;;;;2.72;0.77;;;;;;;10.10;81.31;99591.53;4246627;33;33707;-74
2022/09/21 01:01:41;;;;;;;0.40;0.40;;;;;;;10.14;80.75;99587.19;4247300;33;35930;-74
2022/09/21 01:04:10;;;;;;;0.60;0.60;;;;;;;10.23;80.72;99593.19;4246526;33;35250;-74
2022/09/21 01:06:39;;;;;;;0.60;0.60;;;;;;;9.99;81.37;99589.00;4246588;33;33625;-74
2022/09/21 01:09:07;;;;;;;2.05;1.02;;;;;;;9.59;82.54;99596.91;4234910;33;34036;-74
2022/09/21 01:12:08;;;;;;;0.62;0.62;;;;;;;9.35;83.28;99594.38;4234664;33;33630;-74
2022/09/21 01:14:53;;;;;;;0.57;0.57;;;;;;;9.79;82.81;99596.00;4247452;33;35217;-74
2022/09/21 01:17:27;;;;;;;3.70;1.17;;;;;;;9.83;80.95;99592.53;4235116;33;33540;-74
2022/09/21 01:20:14;;;;;;;0.40;0.40;;;;;;;9.95;81.32;99596.81;4234759;33;34148;-73
2022/09/21 01:23:13;;;;;;;0.60;0.60;;;;;;;9.79;81.92;99596.00;4246511;33;33565;-74
2022/09/21 01:26:13;;;;;;;0.50;0.50;;;;;;;10.24;79.73;99599.28;4246399;33;34560;-74
2022/09/21 01:29:17;;;;;;;0.50;0.50;;;;;;;9.94;81.32;99598.53;4247842;33;33958;-74
2022/09/21 01:31:54;;;;;;;0.52;0.52;;;;;;;9.76;80.79;99596.00;4247606;33;34053;-74
2022/09/21 01:34:51;;;;;;;0.50;0.50;;;;;;;9.94;80.93;99595.09;4234751;33;35830;-74
2022/09/21 01:37:28;;;;;;;;;;;;;;;10.44;78.12;99593.97;4246739;33;35297;-74
2022/09/21 01:39:59;;;;;;;0.50;0.50;;;;;;;10.61;76.53;99596.50;4246510;33;33523;-74
2022/09/21 01:42:28;;;;;;;0.90;0.82;;;;;;;10.14;78.70;99592.38;4234842;33;34749;-74
2022/09/21 01:44:58;;;;;;;0.50;0.50;;;;;;;9.90;79.79;99593.34;4246242;33;36480;-74
2022/09/21 01:47:28;;;;;;;0.70;0.70;;;;;;;9.96;79.83;99596.81;4234720;33;34437;-74
2022/09/21 01:49:59;;;;;;;0.50;0.50;;;;;;;10.25;78.05;99595.78;4234904;33;33998;-74
2022/09/21 01:52:33;;;;;;;0.40;0.40;;;;;;;10.23;77.53;99598.38;4246363;33;34253;-74
2022/09/21 01:55:07;;;;;;;0.60;0.60;;;;;;;9.93;80.08;99603.75;4247082;33;35126;-74
2022/09/21 01:57:41;;;;;;;0.77;0.77;;;;;;;9.87;79.69;99605.50;4246206;33;34464;-74
2022/09/21 02:00:09;;;;;;;0.45;0.45;;;;;;;9.88;79.35;99603.75;4234502;33;32944;-74
2022/09/21 02:02:49;;;;;;;0.73;0.73;;;;;;;9.89;80.34;99608.09;4246197;33;34000;-74
2022/09/21 02:05:19;;;;;;;1.58;1.05;;;;;;;9.02;84.88;99606.56;4234360;33;35298;-74
2022/09/21 02:07:49;;;;;;;0.55;0.55;;;;;;;10.28;79.44;99602.72;4234733;33;34374;-74
2022/09/21 02:10:41;;;;;;;0.60;0.60;;;;;;;9.11;84.93;99604.78;4223177;33;33496;-74
2022/09/21 02:13:08;;;;;;;0.50;0.50;;;;;;;9.66;82.76;99603.84;4246181;33;34834;-74
2022/09/21 02:16:08;;;;;;;0.50;0.50;;;;;;;9.69;83.61;99610.78;4247064;33;35946;-74
2022/09/21 02:18:42;;;;;;;3.83;2.60;;;;;;;9.93;82.54;99609.81;4247220;33;34679;-74
2022/09/21 02:21:18;;;;;;;0.40;0.40;;;;;;;10.10;81.95;99606.28;4234793;33;34306;-74
2022/09/21 02:24:20;;;;;;;1.73;0.82;;;;;;;10.37;80.69;99616.56;4234489;33;33880;-73
2022/09/21 02:26:54;;;;;;;0.57;0.57;;;;;;;9.99;81.86;99617.59;4247032;33;35167;-74
2022/09/21 02:29:31;;;;;;;0.50;0.50;;;;;;;10.11;81.31;99618.41;4234315;33;34606;-74
2022/09/21 02:32:08;;;;;;;0.60;0.60;;;;;;;10.81;78.52;99619.78;4234800;33;33472;-74
2022/09/21 02:34:46;;;;;;;0.70;0.70;;;;;;;10.20;81.51;99618.38;4234139;33;34512;-74
2022/09/21 02:37:22;;;;;;;1.05;1.05;;;;;;;10.33;80.20;99624.44;4234615;33;34970;-74
2022/09/21 02:40:13;;;;;;;0.70;0.70;;;;;;;10.64;79.74;99619.87;4234234;33;34428;-74
2022/09/21 02:42:44;;;;;;;0.70;0.70;;;;;;;10.07;81.65;99623.62;4206239;33;33451;-74
2022/09/21 02:45:14;;;;;;;0.60;0.60;;;;;;;10.87;78.02;99619.75;4245795;33;33259;-74
2022/09/21 02:47:47;;;;;;;0.50;0.50;;;;;;;10.47;79.02;99622.59;4233908;33;35350;-74
2022/09/21 02:50:20;;;;;;;0.40;0.40;;;;;;;9.99;81.39;99619.34;4234042;33;34487;-74
2022/09/21 02:52:49;;;;;;;0.47;0.47;;;;;;;10.50;79.70;99622.59;4234096;33;33710;-74
2022/09/21 02:55:17;;;;;;;0.77;0.75;;;;;;;10.12;81.04;99626.22;4245209;33;34018;-74
2022/09/21 02:57:46;;;;;;;0.40;0.40;;;;;;;10.38;80.53;99617.47;4233952;33;35230;-74
2022/09/21 03:00:15;;;;;;;3.20;2.90;;;;;;;10.32;80.52;99615.72;4245494;33;34473;-74
2022/09/21 03:02:44;;;;;;;0.93;0.93;;;;;;;10.43;79.98;99620.91;4246630;33;33512;-74
2022/09/21 03:05:13;;;;;;;1.08;1.08;;;;;;;10.31;80.01;99624.44;4246560;33;34794;-74
2022/09/21 03:07:41;;;;;;;1.10;1.10;;;;;;;9.93;82.65;99628.03;4246457;33;35049;-74
2022/09/21 03:10:09;;;;;;;0.40;0.40;;;;;;;10.32;80.79;99618.34;4246501;33;35203;-74
2022/09/21 03:12:37;;;;;;;1.58;1.48;;;;;;;10.21;80.14;99625.31;4246466;33;33483;-74
2022/09/21 03:15:05;;;;;;;0.50;0.50;;;;;;;10.62;78.73;99621.63;4246241;33;34797;-74
2022/09/21 03:17:34;;;;;;;0.77;0.77;;;;;;;10.37;79.89;99627.00;4246346;33;35199;-74
2022/09/21 03:20:04;;;;;;;0.80;0.80;;;;;;;10.43;79.70;99636.53;4242721;33;35401;-77
2022/09/21 03:22:37;;;;;;;1.02;1.02;;;;;;;10.40;79.76;99631.34;4232311;33;33166;-75
2022/09/21 03:25:05;;;;;;;0.40;0.40;;;;;;;10.34;79.86;99632.25;4232913;33;34132;-81
2022/09/21 03:27:33;;;;;;;0.82;0.82;;;;;;;9.93;81.35;99641.03;4234140;33;35063;-80
2022/09/21 03:30:02;;;;;;;4.00;1.25;;;;;;;10.68;78.63;99636.38;4233866;33;35327;-80
2022/09/21 03:32:30;;;;;;;0.73;0.73;;;;;;;10.33;80.43;99640.03;4233956;33;34275;-81
2022/09/21 03:34:58;;;;;;;0.98;0.95;;;;;;;10.17;81.58;99644.44;4233938;33;34894;-74
2022/09/21 03:37:26;;;;;;;0.40;0.40;;;;;;;10.63;79.09;99639.00;4232781;33;35896;-76
2022/09/21 03:39:54;;;;;;;0.50;0.50;;;;;;;11.14;76.06;99647.31;4233772;33;35110;-79
2022/09/21 03:42:22;;;;;;;0.47;0.47;;;;;;;11.12;75.52;99643.87;4234076;33;34528;-80
2022/09/21 03:44:51;;;;;;;0.77;0.77;;;;;;;11.21;74.61;99642.94;4221320;33;34650;-74
2022/09/21 03:47:19;;;;;;;0.40;0.40;;;;;;;10.38;77.43;99648.69;4232840;33;34916;-78
2022/09/21 03:49:50;;;;;;;0.40;0.40;;;;;;;10.69;76.30;99648.50;4221371;33;34499;-74
2022/09/21 03:52:19;;;;;;;0.60;0.60;;;;;;;10.39;76.73;99647.81;4233937;33;33574;-74
2022/09/21 03:54:54;;;;;;;0.85;0.85;;;;;;;9.95;79.87;99649.69;4232507;33;34698;-77
2022/09/21 03:57:27;;;;;;;1.50;1.40;;;;;;;9.65;81.12;99656.72;4233900;33;35000;-74
2022/09/21 03:59:55;;;;;;;0.52;0.52;;;;;;;9.76;81.33;99654.09;4233707;33;34653;-75
2022/09/21 04:02:27;;;;;;;0.93;0.93;;;;;;;9.58;81.60;99647.22;4220998;33;32613;-74
2022/09/21 04:04:56;;;;;;;0.60;0.60;;;;;;;9.53;82.77;99651.53;4221306;33;33895;-80
2022/09/21 04:07:25;;;;;;;0.70;0.70;;;;;;;9.71;81.83;99652.38;4233707;33;35157;-73
2022/09/21 04:09:53;;;;;;;1.20;1.10;;;;;;;10.09;79.62;99656.59;4233634;33;35306;-75
2022/09/21 04:12:22;;;;;;;1.17;1.15;;;;;;;9.44;82.82;99659.31;4233821;33;33533;-80
2022/09/21 04:14:53;;;;;;;0.70;0.70;;;;;;;9.39;82.43;99663.66;4221252;33;33876;-73
2022/09/21 04:17:21;;;;;;;0.65;0.65;;;;;;;9.65;81.64;99667.13;4219804;34;35075;-74
2022/09/21 04:19:50;;;;;;;0.50;0.50;;;;;;;9.42;83.40;99672.34;4219717;34;34478;-78
2022/09/21 04:22:18;;;;;;;0.40;0.40;;;;;;;9.56;81.15;99668.84;4219836;34;33380;-78
2022/09/21 04:24:46;;;;;;;1.95;1.85;;;;;;;9.60;81.64;99666.25;4219750;34;33945;-73
2022/09/21 04:27:16;;;;;;;0.68;0.68;;;;;;;9.84;81.12;99678.31;4219779;34;36044;-74
2022/09/21 04:29:45;;;;;;;0.65;0.65;;;;;;;9.77;81.11;99678.34;4219463;34;35351;-79
2022/09/21 04:45:52;;;;;;;0.77;0.77;;;;;;;10.51;79.37;99691.16;4477025;32;151509;-77
2022/09/21 04:48:22;;;;;;;0.50;0.50;;;;;;;10.51;79.37;99691.16;4466492;32;33919;-77
2022/09/21 04:50:50;;;;;;;0.80;0.80;;;;;;;10.32;79.25;99688.63;4462531;32;33797;-76
2022/09/21 04:53:18;;;;;;;1.00;0.68;;;;;;;10.11;79.34;99686.06;4464925;32;35001;-76
2022/09/21 04:55:46;;;;;;;0.95;0.95;;;;;;;10.01;80.28;99687.84;4466081;32;34887;-75
2022/09/21 04:58:13;;;;;;;0.62;0.62;;;;;;;9.60;81.90;99688.78;4465009;32;32406;-84
2022/09/21 05:00:41;;;;;;;0.40;0.40;;;;;;;9.74;82.65;99692.25;4466108;32;33928;-76
2022/09/21 05:03:10;;;;;;;0.70;0.70;;;;;;;9.76;82.04;99695.72;4466011;32;34937;-84
2022/09/21 05:05:37;;;;;;;0.50;0.50;;;;;;;9.76;81.38;99706.09;4466212;32;35195;-78
2022/09/21 05:08:05;;;;;;;0.40;0.40;;;;;;;10.17;80.01;99702.53;4466099;32;33507;-76
2022/09/21 05:10:33;;;;;;;2.22;1.33;;;;;;;10.27;79.12;99700.78;4466035;32;34647;-86
2022/09/21 05:13:01;;;;;;;0.40;0.40;;;;;;;10.29;79.31;99706.84;4465725;32;35003;-76
2022/09/21 05:15:29;;;;;;;0.82;0.82;;;;;;;10.27;79.29;99705.97;4464357;32;33660;-77
2022/09/21 05:17:58;;;;;;;1.00;0.95;;;;;;;10.49;79.41;99714.59;4465732;32;33378;-76
2022/09/21 05:20:28;;;;;;;0.60;0.60;;;;;;;10.41;81.68;99700.72;4466045;32;33017;-77
2022/09/21 05:23:03;;;;;;;0.90;0.90;;;;;;;10.88;79.11;99702.22;4466138;32;35896;-76
2022/09/21 05:25:32;;;;;;;0.50;0.50;;;;;;;10.18;80.86;99708.59;4466003;32;35077;-77
2022/09/21 05:28:02;;;;;;;0.40;0.40;;;;;;;10.41;80.38;99709.44;4466184;32;33295;-77
2022/09/21 05:30:31;;;;;;;0.40;0.40;;;;;;;10.10;81.64;99705.16;4466074;32;33950;-77
2022/09/21 05:33:03;;;;;;;2.22;1.23;;;;;;;10.19;81.30;99705.13;4466134;32;35177;-77
2022/09/21 05:35:54;;;;;;;1.37;1.20;;;;;;;9.56;84.36;99708.72;4462066;32;35116;-76
2022/09/21 05:38:32;;;;;;;0.62;0.62;;;;;;;9.88;83.06;99710.41;4465964;32;33358;-76
2022/09/21 05:41:41;;;;;;;1.77;1.48;;;;;;;10.18;79.98;99708.59;4463825;32;32116;-81
2022/09/21 05:44:14;;;;;;;0.65;0.65;;;;;;;10.61;79.61;99711.94;4464462;32;35874;-78
2022/09/21 05:47:01;;;;;;;0.93;0.85;;;;;;;10.58;80.12;99713.69;4454652;32;34409;-78
2022/09/21 05:49:40;;;;;;;0.75;0.75;;;;;;;10.68;79.12;99710.16;4455455;32;34326;-79
2022/09/21 05:52:30;;;;;;;0.88;0.88;;;;;;;10.01;82.25;99719.91;4454239;32;33812;-79
2022/09/21 05:55:31;;;;;;;0.40;0.40;;;;;;;10.35;81.08;99716.38;4455229;32;33871;-79
2022/09/21 05:58:09;;;;;;;0.75;0.75;;;;;;;10.48;80.14;99717.19;4454213;32;35267;-77
2022/09/21 06:01:06;;;;;;;0.80;0.80;;;;;;;9.98;82.52;99725.13;4454390;32;33630;-77
2022/09/21 06:03:35;;;;;;;0.45;0.45;;;;;;;10.13;82.41;99721.63;4431779;32;34063;-77
2022/09/21 06:06:03;;;;;;;0.45;0.45;;;;;;;10.20;82.23;99723.34;4455411;32;35080;-76
2022/09/21 06:08:32;;;;;;;0.60;0.60;;;;;;;10.49;81.49;99722.41;4454341;32;34422;-77
2022/09/21 06:11:00;;;;;;;0.73;0.73;;;;;;;10.33;82.66;99725.94;4455389;32;33311;-77
2022/09/21 06:13:29;;;;;;;0.40;0.40;;;;;;;10.56;82.14;99729.31;4454268;32;33148;-77
2022/09/21 06:16:01;;;;;;;0.73;0.73;;;;;;;10.64;82.31;99724.06;4455230;32;35163;-77
2022/09/21 06:18:29;;;;;;;1.33;1.25;;;;;;;10.72;82.69;99732.69;4455381;32;34423;-77
2022/09/21 06:20:58;;;;;;;0.45;0.45;;;;;;;11.32;79.75;99731.47;4455289;32;33379;-77
2022/09/21 06:23:26;;;;;;;0.80;0.80;;;;;;;11.72;77.81;99736.38;4455240;32;33885;-77
2022/09/21 06:25:55;;;;;;;1.50;1.40;;;;;;;11.70;77.55;99735.50;4455402;32;35005;-77
2022/09/21 06:28:26;;;;;;;0.50;0.50;;;;;;;11.66;77.26;99734.66;4455376;32;33601;-77
2022/09/21 06:30:56;;;;;;;0.65;0.65;;;;;;;11.57;77.82;99738.22;4455292;32;34152;-77
2022/09/21 06:33:25;;;;;;;1.40;1.23;;;;;;;11.97;75.14;99737.03;4455300;32;34521;-77
2022/09/21 06:35:57;;;;;;;0.50;0.50;;;;;;;11.71;76.77;99743.31;4453945;32;35049;-77
2022/09/21 06:38:27;;;;;;;0.57;0.57;;;;;;;11.74;77.29;99743.28;4455295;32;34397;-77
2022/09/21 06:41:00;;;;;;;2.60;1.55;;;;;;;12.44;75.75;99746.09;4455163;32;33398;-77
2022/09/21 06:43:30;;;;;;;0.35;0.35;;;;;;;13.20;72.12;99738.09;4454073;32;33970;-77
2022/09/21 06:46:00;;;;;;;0.40;0.40;;;;;;;13.11;72.47;99742.59;4453798;32;36004;-77
2022/09/21 06:48:31;;;;;;;0.73;0.73;;;;;;;13.48;71.33;99739.44;4453966;32;35085;-77
2022/09/21 06:51:04;;;;;;;0.70;0.70;;;;;;;13.85;69.56;99747.53;4454084;32;33366;-77
2022/09/21 06:53:34;;;;;;;0.77;0.77;;;;;;;13.40;69.84;99740.44;4455150;32;34741;-77
2022/09/21 06:56:06;;;;;;;0.40;0.40;;;;;;;13.63;70.33;99749.66;4455014;32;35977;-77
2022/09/21 06:58:36;;;;;;;0.40;0.40;;;;;;;13.83;71.52;99750.16;4454362;32;34284;-77
2022/09/21 07:01:06;;;;;;;0.55;0.55;;;;;;;13.94;69.64;99754.34;4455111;32;33630;-77
2022/09/21 07:03:35;;;;;;;1.08;0.85;;;;;;;13.76;70.97;99752.94;4455122;32;34335;-77
2022/09/21 07:06:04;;;;;;;0.50;0.50;;;;;;;14.46;68.18;99756.00;4453835;32;35986;-77
2022/09/21 07:08:33;;;;;;;1.48;1.25;;;;;;;14.11;70.50;99757.53;4455033;32;35223;-77
2022/09/21 07:11:26;;;;;;;0.75;0.75;;;;;;;15.20;65.23;99756.22;4454148;32;33369;-77
2022/09/21 07:13:55;;;;;;;1.50;1.00;;;;;;;14.62;67.23;99763.59;4455120;32;34882;-77
2022/09/21 07:16:24;;;;;;;0.57;0.57;;;;;;;14.49;65.59;99761.19;4454917;32;35208;-77
2022/09/21 07:18:52;;;;;;;1.12;1.12;;;;;;;14.75;66.74;99759.81;4455216;32;34403;-77
2022/09/21 07:21:21;;;;;;;2.08;1.00;;;;;;;14.90;65.08;99764.72;4453771;32;33402;-77
2022/09/21 07:23:49;;;;;;;1.00;0.95;;;;;;;14.12;70.02;99761.03;4453836;32;34801;-77
2022/09/21 07:26:18;;;;;;;0.43;0.43;;;;;;;14.57;66.76;99769.72;4454683;32;35191;-77
2022/09/21 07:28:46;;;;;;;0.50;0.50;;;;;;;14.98;65.32;99770.69;4454883;32;34564;-77
2022/09/21 07:31:16;;;;;;;0.55;0.55;;;;;;;15.13;63.54;99768.59;4453768;32;34351;-79
2022/09/21 07:33:45;;;;;;;0.40;0.40;;;;;;;15.04;64.56;99777.53;4453687;32;34695;-77
2022/09/21 07:36:16;;;;;;;0.40;0.40;;;;;;;14.89;65.06;99773.47;4454716;32;35175;-78
2022/09/21 07:38:44;;;;;;;0.45;0.45;;;;;;;14.84;64.86;99780.59;4454893;32;34424;-76
2022/09/21 07:41:13;;;;;;;0.40;0.40;;;;;;;15.32;64.38;99775.16;4454835;32;33606;-77
2022/09/21 07:43:42;;;;;;;0.98;0.95;;;;;;;15.13;63.80;99772.09;4454545;32;33928;-78
2022/09/21 07:46:13;;;;;;;0.82;0.82;;;;;;;15.45;65.24;99774.88;4454691;32;35085;-77
2022/09/21 07:48:42;;;;;;;1.87;1.75;;;;;;;15.17;65.49;99776.34;4453764;32;34307;-77
2022/09/21 07:51:12;;;;;;;0.57;0.57;;;;;;;15.54;65.85;99785.13;4453652;32;34240;-77
2022/09/21 07:53:46;;;;;;;0.22;0.22;;;;;;;16.09;61.41;99777.66;4454783;32;34456;-77
2022/09/21 07:56:15;;;;;;;0.45;0.45;;;;;;;15.65;63.88;99785.75;4453456;32;35565;-77
2022/09/21 08:01:37;;;;;;;0.32;0.32;;;;;;;16.33;63.66;99791.94;4454813;32;33404;-77
2022/09/21 08:04:09;;;;;;;0.45;0.45;;;;;;;16.17;63.08;99778.34;4453487;32;34740;-77
2022/09/21 08:06:41;;;;;;;0.30;0.30;;;;;;;16.90;59.84;99777.19;4454609;32;35063;-77
2022/09/21 08:09:09;;;;;;;0.62;0.62;;;;;;;17.01;61.45;99785.66;4454179;32;34999;-77
2022/09/21 08:11:43;;;;;;;1.40;0.52;;;;;;;16.99;58.46;99784.81;4454548;32;34295;-77
2022/09/21 08:14:18;;;;;;;1.35;1.25;;;;;;;17.71;54.62;99780.81;4454572;32;33943;-77
2022/09/21 08:16:53;;;;;;;0.68;0.68;;;;;;;17.20;56.07;99778.03;4453436;32;34975;-77
2022/09/21 08:19:24;;;;;;;0.37;0.37;;;;;;;16.15;60.25;99777.53;4454435;32;34331;-78
2022/09/21 08:21:52;;;;;;;0.65;0.65;;;;;;;16.22;60.55;99772.97;4453415;32;33583;-77
2022/09/21 08:24:25;;;;;;;0.57;0.57;;;;;;;16.59;59.70;99769.28;4453216;32;33703;-77
2022/09/21 08:26:54;;;;;;;0.20;0.20;;;;;;;16.49;63.04;99772.19;4454305;32;35982;-77
2022/09/21 08:29:23;;;;;;;0.52;0.52;;;;;;;16.72;58.91;99770.69;4454292;32;34423;-77
2022/09/21 08:31:52;;;;;;;0.40;0.40;;;;;;;17.44;57.41;99772.91;4453429;32;32637;-77
2022/09/21 08:34:22;;;;;;;0.95;0.62;;;;;;;17.12;58.68;99781.81;4453071;32;34036;-77
2022/09/21 08:36:51;;;;;;;0.47;0.47;;;;;;;17.60;57.88;99775.91;4454162;32;35077;-77
2022/09/21 08:39:23;;;;;;;0.30;0.30;;;;;;;17.29;61.03;99779.50;4454192;32;34473;-76
2022/09/21 08:42:09;;;;;;;0.52;0.52;;;;;;;18.35;55.51;99777.78;4454157;32;34081;-77
2022/09/21 08:44:52;;;;;;;0.82;0.82;;;;;;;18.80;56.33;99778.81;4453990;32;34094;-77
2022/09/21 08:47:26;;;;;;;0.70;0.70;;;;;;;18.53;55.92;99786.78;4453230;32;35120;-77
2022/09/21 08:49:59;;;;;;;0.55;0.55;;;;;;;19.15;53.98;99782.75;4452741;32;35117;-77
2022/09/21 08:52:28;;;;;;;1.65;1.40;;;;;;;19.11;51.28;99789.94;4452917;32;34336;-77
2022/09/21 08:55:03;;;;;;;0.40;0.40;;;;;;;17.71;54.38;99786.94;4453890;32;33994;-77
2022/09/21 08:57:33;;;;;;;0.70;0.70;;;;;;;17.29;55.58;99789.19;4452807;32;35898;-77
2022/09/21 09:00:12;;;;;;;1.20;1.10;;;;;;;16.69;55.51;99794.41;4452902;32;33654;-77
2022/09/21 09:03:00;;;;;;;1.27;0.95;;;;;;;16.95;57.57;99790.22;4452923;32;33627;-77
2022/09/21 09:05:50;;;;;;;0.65;0.55;;;;;;;16.26;57.93;99795.63;4453818;32;34700;-77
2022/09/21 09:08:36;;;;;;;0.55;0.55;;;;;;;16.56;59.83;99799.19;4453787;32;35067;-77
2022/09/21 09:11:19;;;;;;;0.45;0.45;;;;;;;16.81;58.04;99791.44;4453649;32;35215;-77
2022/09/21 09:14:18;;;;;;;0.40;0.40;;;;;;;17.68;56.26;99794.94;4453676;32;34317;-77
2022/09/21 09:17:04;;;;;;;0.22;0.22;;;;;;;17.74;54.99;99789.50;4452574;32;34846;-77
2022/09/21 09:19:58;;;;;;;0.57;0.57;;;;;;;17.81;56.02;99791.00;4452449;32;35931;-77
2022/09/21 09:22:39;;;;;;;0.30;0.30;;;;;;;18.55;53.64;99790.25;4455767;32;34470;-82
2022/09/21 09:25:23;;;;;;;0.30;0.30;;;;;;;18.50;53.92;99792.19;4454600;32;33517;-77
2022/09/21 09:27:55;;;;;;;0.40;0.40;;;;;;;19.26;51.73;99784.97;4455757;32;33945;-77
2022/09/21 09:30:25;;;;;;;0.50;0.50;;;;;;;18.20;52.51;99784.47;4454574;32;35767;-77
2022/09/21 09:33:19;;;;;;;0.45;0.45;;;;;;;18.76;51.31;99778.91;4454586;32;34163;-77
2022/09/21 09:35:51;;;;;;;0.40;0.40;;;;;;;18.86;52.59;99783.88;4454325;32;34349;-77
2022/09/21 09:38:47;;;;;;;0.40;0.40;;;;;;;18.85;52.98;99785.66;4454550;32;34912;-77
2022/09/21 09:41:42;;;;;;;0.50;0.50;;;;;;;19.27;50.32;99782.28;4454483;32;35162;-77
2022/09/21 09:44:34;;;;;;;0.57;0.57;;;;;;;18.70;51.78;99779.13;4455439;32;34450;-77
2022/09/21 09:47:36;;;;;;;0.55;0.55;;;;;;;19.16;50.69;99778.34;4455603;32;34347;-77
2022/09/21 09:50:10;;;;;;;0.60;0.60;;;;;;;18.92;53.29;99788.94;4455514;32;34277;-76
2022/09/21 09:52:39;;;;;;;0.50;0.50;;;;;;;18.90;51.76;99785.47;4455493;32;35857;-77
2022/09/21 09:55:37;;;;;;;0.30;0.30;;;;;;;19.49;49.17;99782.28;4454393;32;34428;-78
2022/09/21 09:58:18;;;;;;;0.50;0.50;;;;;;;19.24;49.00;99778.91;4453751;32;33488;-77
2022/09/21 10:00:51;;;;;;;0.37;0.37;;;;;;;18.45;52.00;99781.81;4455577;32;34362;-77
2022/09/21 10:03:27;;;;;;;0.28;0.28;;;;;;;19.76;47.19;99787.37;4455516;32;35177;-77
2022/09/21 10:05:55;;;;;;;1.33;1.23;;;;;;;19.40;51.57;99782.66;4455477;32;34403;-77
2022/09/21 10:08:40;;;;;;;0.77;0.77;;;;;;;19.47;51.12;99775.34;4455386;32;33470;-77
2022/09/21 10:11:11;;;;;;;0.28;0.28;;;;;;;20.39;49.36;99775.91;4455544;32;34724;-77
2022/09/21 10:13:47;;;;;;;0.73;0.62;;;;;;;19.87;50.09;99776.34;4454152;32;35906;-77
2022/09/21 10:16:20;;;;;;;0.60;0.60;;;;;;;20.15;48.52;99769.91;4454212;32;34506;-77
2022/09/21 10:18:55;;;;;;;0.30;0.30;;;;;;;20.57;51.53;99763.63;4455438;32;33232;-77
2022/09/21 10:21:37;;;;;;;0.40;0.40;;;;;;;19.44;49.28;99771.03;4454236;32;33922;-77
2022/09/21 10:24:30;;;;;;;1.45;1.17;;;;;;;19.94;49.60;99763.75;4454174;32;35940;-77
2022/09/21 10:27:09;;;;;;;0.22;0.22;;;;;;;20.55;48.94;99765.50;4455354;32;35149;-77
2022/09/21 10:29:43;;;;;;;0.22;0.22;;;;;;;20.96;48.22;99754.81;4454244;32;33526;-77
2022/09/21 10:32:11;;;;;;;0.32;0.32;;;;;;;20.76;51.47;99761.06;4455274;32;34374;-77
2022/09/21 10:35:11;;;;;;;0.70;0.70;;;;;;;21.07;46.74;99756.94;4455323;32;35843;-78
2022/09/21 10:37:42;;;;;;;0.20;0.20;;;;;;;20.31;47.04;99752.41;4455209;32;34249;-77
2022/09/21 10:40:29;;;;;;;0.47;0.47;;;;;;;21.15;46.34;99746.88;4455264;32;33347;-77
2022/09/21 10:42:58;;;;;;;;;;;;;;;21.15;46.70;99746.88;4454607;32;33897;-77
2022/09/21 10:45:28;;;;;;;0.62;0.62;;;;;;;21.14;47.50;99745.12;4441215;32;35419;-77
2022/09/21 10:48:07;;;;;;;0.45;0.45;;;;;;;21.74;46.38;99748.41;4454048;32;33709;-78
2022/09/21 10:50:40;;;;;;;0.20;0.20;;;;;;;19.91;50.41;99745.38;4453982;32;33448;-77
2022/09/21 10:53:09;;;;;;;0.40;0.40;;;;;;;20.00;48.06;99752.94;4453975;32;34598;-76
2022/09/21 10:55:45;;;;;;;0.20;0.20;;;;;;;19.98;53.82;99749.50;4455014;32;35075;-77
2022/09/21 10:58:34;;;;;;;0.20;0.20;;;;;;;20.41;48.98;99748.44;4454173;32;35140;-77
2022/09/21 11:01:21;;;;;;;0.30;0.30;;;;;;;19.91;48.37;99737.44;4453803;32;34276;-77
2022/09/21 11:03:55;;;;;;;;;;;;;;;20.27;48.64;99741.13;4454205;32;34638;-78
2022/09/21 11:06:41;;;;;;;0.40;0.40;;;;;;;20.98;47.93;99732.66;4455113;32;36204;-78
2022/09/21 11:09:42;;;;;;;0.30;0.30;;;;;;;21.23;45.54;99746.50;4453926;32;34579;-77
2022/09/21 11:12:28;;;;;;;0.20;0.20;;;;;;;21.19;47.04;99736.06;4428829;32;33444;-77
2022/09/21 11:15:08;;;;;;;0.30;0.30;;;;;;;21.38;47.74;99730.69;4455070;32;34068;-77
2022/09/21 11:17:58;;;;;;;0.20;0.20;;;;;;;21.73;47.69;99741.37;4455015;32;36061;-77
2022/09/21 11:20:45;;;;;;;0.20;0.20;;;;;;;20.76;44.83;99737.22;4453769;32;34375;-77
2022/09/21 11:23:29;;;;;;;0.60;0.60;;;;;;;21.31;44.63;99731.94;4453891;32;34352;-77
2022/09/21 11:26:09;;;;;;;0.30;0.30;;;;;;;21.91;43.38;99728.13;4454969;32;33960;-77
2022/09/21 11:28:51;;;;;;;0.40;0.40;;;;;;;21.67;45.96;99724.91;4453950;32;35119;-77
2022/09/21 11:31:38;;;;;;;0.55;0.55;;;;;;;21.66;43.58;99721.41;4455156;32;34394;-78
2022/09/21 11:34:13;;;;;;;0.10;0.10;;;;;;;21.49;44.37;99718.75;4454951;32;33565;-77
2022/09/21 11:37:08;;;;;;;0.47;0.47;;;;;;;21.05;44.58;99721.75;4454794;32;33985;-77
2022/09/21 11:40:23;;;;;;;1.20;0.57;;;;;;;20.73;45.02;99726.78;4454812;32;34934;-77
2022/09/21 11:43:05;;;;;;;5.87;0.50;;;;;;;21.30;42.95;99724.06;4453405;32;34394;-77
2022/09/21 11:46:00;;;;;;;0.82;0.77;;;;;;;20.96;42.21;99726.53;4453429;32;33428;-77
2022/09/21 11:48:34;;;;;;;0.22;0.22;;;;;;;21.61;43.15;99714.66;4453683;32;33869;-78
2022/09/21 11:51:37;;;;;;;0.20;0.20;;;;;;;20.68;43.81;99718.19;4454740;32;35940;-81
2022/09/21 11:54:27;;;;;;;0.80;0.65;;;;;;;21.04;43.01;99710.31;4454643;32;34352;-78
2022/09/21 11:57:18;;;;;;;0.30;0.30;;;;;;;20.00;48.45;99716.75;4453506;32;33302;-80
2022/09/21 11:59:59;;;;;;;0.20;0.20;;;;;;;20.16;47.67;99710.81;4453471;32;34764;-78
2022/09/21 12:02:50;;;;;;;0.32;0.32;;;;;;;20.49;46.66;99703.16;4453597;32;36028;-77
2022/09/21 12:05:41;;;;;;;0.47;0.47;;;;;;;20.72;44.78;99693.28;4454720;32;34354;-78
2022/09/21 12:08:27;;;;;;;0.20;0.20;;;;;;;19.85;46.58;99705.09;4453433;32;33397;-78
2022/09/21 12:11:15;;;;;;;0.25;0.25;;;;;;;19.81;44.82;99706.13;4454624;32;34798;-77
2022/09/21 12:13:57;;;;;;;0.25;0.25;;;;;;;19.21;46.29;99694.53;4453427;32;35268;-77
2022/09/21 12:16:43;;;;;;;0.40;0.40;;;;;;;17.89;48.83;99703.81;4453290;32;35037;-77
2022/09/21 12:19:27;;;;;;;0.15;0.15;;;;;;;18.42;48.93;99694.03;4440623;32;33675;-77
2022/09/21 12:22:07;;;;;;;0.20;0.20;;;;;;;17.86;49.79;99687.28;4453558;32;34786;-77
2022/09/21 12:24:41;;;;;;;0.28;0.28;;;;;;;19.16;47.27;99685.94;4454403;32;35157;-77
2022/09/21 12:27:17;;;;;;;0.75;0.62;;;;;;;19.72;46.07;99690.63;4453299;32;35160;-77
2022/09/21 12:29:51;;;;;;;0.30;0.30;;;;;;;18.96;47.07;99692.03;4454444;32;34131;-77
2022/09/21 12:32:21;;;;;;;0.57;0.57;;;;;;;19.39;47.70;99688.47;4453242;32;33961;-78